Time;durP1;ratioP1;P1;durP2;ratioP2;P2;SDS_P1;SDS_P2;PMS_P1;PMS_P2;Temp;Humidity;BMP_temperature;BMP_pressure;BME280_temperature;BME280_humidity;BME280_pressure;Samples;Min_cycle;Max_cycle;Signal;HPM_P1;HPM_P2
2022/01/13 15:55:29;;;;;;;5.07;2.10;;;15.10;77.10;;;;;;2274484;62;30193;-75
2022/01/13 15:57:56;;;;;;;5.65;2.42;;;15.00;78.20;;;;;;2259536;62;29938;-77
2022/01/13 16:00:25;;;;;;;3.80;2.13;;;15.10;79.00;;;;;;2273799;62;30259;-82
2022/01/13 16:02:51;;;;;;;4.15;2.17;;;15.10;79.60;;;;;;2266279;62;30395;-78
2022/01/13 16:05:17;;;;;;;4.22;2.45;;;15.20;80.00;;;;;;2273884;62;30140;-79
2022/01/13 16:07:43;;;;;;;3.25;2.20;;;15.30;80.30;;;;;;2273581;62;30062;-79
2022/01/13 16:10:10;;;;;;;3.60;2.03;;;15.30;80.40;;;;;;2273406;62;30753;-78
2022/01/13 16:12:36;;;;;;;2.03;1.83;;;15.40;80.50;;;;;;2273820;62;30783;-78
2022/01/13 16:15:04;;;;;;;3.30;1.85;;;15.40;80.50;;;;;;2273693;62;29617;-77
2022/01/13 16:17:30;;;;;;;8.30;2.13;;;15.40;80.30;;;;;;2266047;62;30850;-75
2022/01/13 16:19:56;;;;;;;2.47;1.65;;;15.50;80.50;;;;;;2273708;62;30087;-80
2022/01/13 16:22:23;;;;;;;4.57;1.83;;;15.50;80.30;;;;;;2266200;62;30851;-81
2022/01/13 16:24:52;;;;;;;4.40;1.70;;;15.60;80.30;;;;;;2272588;62;30331;-81
2022/01/13 16:27:20;;;;;;;3.40;1.90;;;15.60;80.30;;;;;;2260325;62;30429;-78
2022/01/13 16:30:14;;;;;;;4.22;1.88;;;15.70;80.10;;;;;;2273588;62;30173;-80
2022/01/13 16:32:44;;;;;;;2.10;1.45;;;15.80;78.80;;;;;;2265196;62;30745;-80
2022/01/13 16:35:15;;;;;;;3.75;1.75;;;15.90;79.90;;;;;;2265895;62;30211;-81
2022/01/13 16:37:44;;;;;;;8.27;1.92;;;16.00;79.70;;;;;;2265079;62;30304;-75
2022/01/13 16:40:17;;;;;;;4.63;1.80;;;16.00;79.60;;;;;;2265774;62;30441;-78
2022/01/13 16:42:45;;;;;;;4.40;2.03;;;16.10;79.40;;;;;;2265487;62;31037;-78
2022/01/13 16:45:13;;;;;;;5.70;1.60;;;16.10;79.10;;;;;;2272823;62;30438;-79
2022/01/13 16:47:39;;;;;;;3.67;2.05;;;16.10;78.90;;;;;;2273339;62;30374;-78
2022/01/13 16:50:07;;;;;;;2.38;1.90;;;16.20;78.80;;;;;;2258877;62;30327;-76
2022/01/13 16:52:33;;;;;;;6.53;1.90;;;16.20;78.60;;;;;;2259378;62;30192;-79
2022/01/13 16:55:02;;;;;;;3.15;1.90;;;16.30;78.50;;;;;;2273399;62;30378;-79
2022/01/13 16:57:28;;;;;;;3.85;1.70;;;16.30;78.30;;;;;;2266064;62;30212;-81
2022/01/13 16:59:55;;;;;;;2.85;1.92;;;16.30;78.10;;;;;;2265830;62;30521;-78
2022/01/13 17:02:21;;;;;;;3.55;1.95;;;16.40;78.00;;;;;;2273376;62;30277;-80
2022/01/13 17:04:47;;;;;;;3.17;1.65;;;16.30;77.80;;;;;;2272477;62;30519;-79
2022/01/13 17:07:13;;;;;;;3.53;1.75;;;16.40;77.70;;;;;;2267929;62;30167;-79
2022/01/13 17:09:39;;;;;;;2.75;1.77;;;16.40;77.60;;;;;;2267882;62;30124;-79
2022/01/13 17:12:05;;;;;;;2.40;1.60;;;16.40;77.50;;;;;;2260507;62;30207;-79
2022/01/13 17:14:31;;;;;;;3.28;1.90;;;16.40;77.30;;;;;;2260452;62;30469;-78
2022/01/13 17:16:59;;;;;;;3.47;1.60;;;16.40;77.10;;;;;;2268031;62;30712;-79
2022/01/13 17:19:25;;;;;;;2.88;1.98;;;16.50;77.00;;;;;;2267733;62;30245;-80
2022/01/13 17:21:51;;;;;;;4.22;1.70;;;16.40;76.80;;;;;;2267901;62;30365;-81
2022/01/13 17:24:17;;;;;;;2.25;1.70;;;16.40;76.70;;;;;;2267769;62;30292;-82
2022/01/13 17:26:43;;;;;;;3.45;2.00;;;16.50;76.70;;;;;;2267582;62;30099;-82
2022/01/13 17:29:09;;;;;;;3.40;1.90;;;16.50;76.50;;;;;;2267734;62;30992;-80
2022/01/13 17:31:35;;;;;;;3.60;1.65;;;16.50;76.40;;;;;;2267818;62;30172;-79
2022/01/13 17:34:04;;;;;;;3.78;1.98;;;16.50;76.30;;;;;;2267455;62;30744;-80
2022/01/13 17:36:31;;;;;;;3.40;1.90;;;16.50;76.20;;;;;;2260299;62;30173;-80
2022/01/13 17:38:58;;;;;;;4.68;1.70;;;16.50;76.10;;;;;;2267810;62;30482;-81
2022/01/13 17:41:23;;;;;;;2.83;1.80;;;16.50;76.00;;;;;;2260437;62;31358;-81
2022/01/13 17:43:49;;;;;;;3.22;1.75;;;16.50;76.00;;;;;;2267121;62;30253;-79
2022/01/13 17:46:17;;;;;;;3.45;1.80;;;16.50;75.90;;;;;;2255524;62;33993;-82
2022/01/13 17:48:45;;;;;;;4.75;2.00;;;16.50;75.80;;;;;;2264324;62;30271;-79
2022/01/13 17:51:14;;;;;;;4.25;1.90;;;16.60;75.70;;;;;;2261213;62;30569;-77
2022/01/13 17:53:41;;;;;;;2.47;1.70;;;16.60;75.70;;;;;;2259144;62;30378;-76
2022/01/13 17:56:08;;;;;;;3.15;1.70;;;16.50;75.70;;;;;;2266724;62;29988;-78
2022/01/13 17:58:34;;;;;;;2.67;1.80;;;16.50;75.60;;;;;;2266999;62;30459;-78
2022/01/13 18:01:02;;;;;;;4.32;1.83;;;16.50;75.50;;;;;;2259097;62;32217;-79
2022/01/13 18:03:27;;;;;;;2.72;1.73;;;16.50;75.40;;;;;;2260305;62;30180;-81
2022/01/13 18:05:57;;;;;;;4.93;1.80;;;16.60;75.40;;;;;;2267736;62;30337;-80
2022/01/13 18:08:23;;;;;;;3.00;1.70;;;16.60;75.40;;;;;;2259826;62;30312;-77
2022/01/13 18:10:49;;;;;;;3.08;1.80;;;16.60;75.30;;;;;;2267599;62;30230;-73
2022/01/13 18:13:15;;;;;;;3.78;1.70;;;16.60;75.30;;;;;;2267506;62;30411;-77
2022/01/13 18:15:41;;;;;;;2.92;1.75;;;16.50;75.30;;;;;;2260023;62;30264;-77
2022/01/13 18:18:07;;;;;;;4.25;1.83;;;16.50;75.30;;;;;;2266935;62;30283;-76
2022/01/13 18:20:35;;;;;;;3.45;1.83;;;16.50;75.20;;;;;;2267541;62;30090;-76
2022/01/13 18:23:01;;;;;;;3.30;1.65;;;16.60;75.20;;;;;;2267068;62;30849;-76
2022/01/13 18:25:27;;;;;;;2.58;1.55;;;16.60;75.20;;;;;;2262677;62;30318;-80
2022/01/13 18:27:53;;;;;;;2.08;1.50;;;16.60;75.10;;;;;;2259260;63;30257;-75
2022/01/13 18:30:19;;;;;;;2.83;1.60;;;16.60;75.10;;;;;;2259220;63;30255;-76
2022/01/13 18:32:45;;;;;;;3.28;1.77;;;16.60;75.00;;;;;;2264279;62;30304;-78
2022/01/13 18:35:11;;;;;;;3.88;1.80;;;16.70;75.00;;;;;;2266505;62;30244;-77
2022/01/13 18:37:37;;;;;;;3.05;1.60;;;16.80;75.00;;;;;;2266976;62;30362;-76
2022/01/13 18:40:04;;;;;;;2.13;1.35;;;16.90;75.00;;;;;;2263502;62;30306;-76
2022/01/13 18:42:36;;;;;;;2.13;1.60;;;16.90;75.00;;;;;;2259238;63;30181;-76
2022/01/13 18:45:02;;;;;;;2.70;1.60;;;16.90;74.90;;;;;;2262653;62;30266;-76
2022/01/13 18:47:28;;;;;;;1.88;1.30;;;17.00;74.70;;;;;;2266822;62;30771;-76
2022/01/13 18:49:54;;;;;;;1.85;1.27;;;17.10;74.60;;;;;;2267341;62;30162;-76
2022/01/13 18:52:20;;;;;;;2.63;1.65;;;17.10;74.40;;;;;;2267006;62;30173;-76
2022/01/13 18:54:46;;;;;;;2.95;1.75;;;17.10;74.30;;;;;;2266944;62;30252;-72
2022/01/13 18:57:12;;;;;;;4.47;1.90;;;17.20;74.20;;;;;;2266736;62;30434;-77
2022/01/13 18:59:39;;;;;;;1.83;1.50;;;17.20;74.10;;;;;;2267127;62;30272;-76
2022/01/13 19:02:07;;;;;;;2.20;1.58;;;17.30;74.10;;;;;;2256929;62;30815;-77
2022/01/13 19:04:34;;;;;;;2.75;1.73;;;17.30;74.10;;;;;;2267215;62;30139;-77
2022/01/13 19:07:00;;;;;;;2.70;1.85;;;17.30;74.00;;;;;;2266616;62;30267;-76
2022/01/13 19:09:33;;;;;;;2.05;1.58;;;17.30;74.30;;;;;;2258238;62;30330;-79
2022/01/13 19:11:59;;;;;;;3.10;1.95;;;17.40;73.90;;;;;;2256006;62;30624;-75
2022/01/13 19:14:25;;;;;;;5.30;1.67;;;17.40;73.70;;;;;;2266564;62;30160;-77
2022/01/13 19:16:52;;;;;;;4.07;1.80;;;17.40;73.60;;;;;;2259277;62;30318;-77
2022/01/13 19:19:26;;;;;;;2.63;1.65;;;17.50;73.50;;;;;;2266820;62;31023;-78
2022/01/13 19:21:52;;;;;;;2.65;1.70;;;17.50;73.40;;;;;;2260260;62;30861;-79
2022/01/13 19:24:18;;;;;;;2.88;1.73;;;17.50;73.20;;;;;;2266754;62;30255;-76
2022/01/13 19:26:44;;;;;;;3.25;1.90;;;17.50;73.10;;;;;;2266650;62;30280;-76
2022/01/13 19:29:10;;;;;;;2.35;1.98;;;17.60;73.10;;;;;;2266842;62;30842;-76
2022/01/13 19:31:36;;;;;;;8.13;2.17;;;17.50;73.00;;;;;;2252887;62;30309;-75
2022/01/13 19:34:02;;;;;;;2.70;1.60;;;17.60;73.00;;;;;;2259611;62;30252;-75
2022/01/13 19:36:28;;;;;;;4.22;1.90;;;17.60;72.90;;;;;;2253044;62;30227;-76
2022/01/13 19:38:54;;;;;;;2.10;1.90;;;17.60;72.90;;;;;;2266808;62;30245;-75
2022/01/13 19:41:20;;;;;;;3.40;1.85;;;17.50;72.80;;;;;;2266982;62;30539;-75
2022/01/13 19:43:46;;;;;;;3.42;1.65;;;17.50;72.90;;;;;;2259064;62;30327;-76
2022/01/13 19:46:11;;;;;;;1.55;1.45;;;17.50;73.10;;;;;;2266242;62;30388;-75
2022/01/13 19:48:37;;;;;;;2.47;1.50;;;17.50;72.80;;;;;;2266697;62;31897;-75
2022/01/13 19:51:04;;;;;;;2.72;1.80;;;17.50;72.80;;;;;;2266744;62;30465;-75
2022/01/13 19:53:37;;;;;;;3.08;1.83;;;17.50;72.80;;;;;;2266506;62;30022;-75
2022/01/13 19:56:07;;;;;;;4.28;1.92;;;17.50;72.90;;;;;;2267046;62;30226;-75
2022/01/13 19:58:36;;;;;;;3.60;1.95;;;17.50;73.00;;;;;;2252450;62;31016;-75
2022/01/13 20:01:03;;;;;;;2.90;1.88;;;17.50;73.00;;;;;;2266621;62;30783;-75
2022/01/13 20:03:33;;;;;;;6.05;1.98;;;17.50;73.10;;;;;;2252729;62;30533;-75
2022/01/13 20:06:03;;;;;;;3.58;2.00;;;17.40;73.10;;;;;;2266714;62;30117;-75
2022/01/13 20:08:28;;;;;;;3.63;2.10;;;17.40;73.30;;;;;;2266685;62;30868;-75
2022/01/13 20:10:56;;;;;;;2.55;1.73;;;17.40;73.40;;;;;;2266187;62;30384;-74
2022/01/13 20:13:22;;;;;;;11.82;2.65;;;17.40;73.40;;;;;;2262750;62;30210;-74
2022/01/13 20:15:48;;;;;;;2.67;1.88;;;17.40;73.50;;;;;;2258772;62;30061;-75
2022/01/13 20:18:14;;;;;;;4.53;2.20;;;17.40;73.50;;;;;;2258819;62;31082;-75
2022/01/13 20:20:41;;;;;;;4.32;2.25;;;17.40;73.50;;;;;;2259373;62;30178;-75
2022/01/13 20:23:08;;;;;;;5.53;2.10;;;17.40;73.60;;;;;;2258772;62;30181;-75
2022/01/13 20:25:34;;;;;;;3.05;2.00;;;17.30;73.50;;;;;;2266096;62;30189;-75
2022/01/13 20:28:00;;;;;;;4.47;2.10;;;17.30;73.60;;;;;;2266425;62;30174;-76
2022/01/13 20:30:26;;;;;;;3.72;2.13;;;17.30;73.60;;;;;;2266117;62;30396;-81
2022/01/13 20:32:52;;;;;;;3.58;2.28;;;17.30;73.60;;;;;;2266649;62;30064;-89
2022/01/13 20:35:18;;;;;;;2.72;2.00;;;17.30;73.40;;;;;;2266516;62;30136;-89
2022/01/13 20:37:44;;;;;;;6.55;2.30;;;17.30;73.20;;;;;;2266686;62;30175;-85
2022/01/13 20:40:10;;;;;;;3.17;2.22;;;17.30;73.10;;;;;;2266496;62;30161;-79
2022/01/13 20:42:36;;;;;;;5.20;2.30;;;17.30;73.10;;;;;;2263053;62;30227;-81
2022/01/13 20:45:02;;;;;;;3.72;1.92;;;17.30;73.00;;;;;;2268072;62;30185;-82
2022/01/13 20:47:28;;;;;;;3.30;1.88;;;17.30;72.90;;;;;;2268070;62;30798;-81
2022/01/13 20:49:55;;;;;;;3.28;2.00;;;17.30;72.90;;;;;;2267867;62;30032;-81
2022/01/13 20:52:20;;;;;;;4.78;2.33;;;17.30;72.90;;;;;;2268115;62;30268;-82
2022/01/13 20:54:50;;;;;;;2.40;1.92;;;17.30;72.90;;;;;;2267754;62;30241;-84
2022/01/13 20:57:17;;;;;;;2.05;1.95;;;17.30;72.90;;;;;;2260601;62;30706;-82
2022/01/13 20:59:43;;;;;;;4.57;2.13;;;17.30;72.90;;;;;;2260480;62;30545;-83
2022/01/13 21:02:09;;;;;;;2.97;2.15;;;17.30;72.90;;;;;;2267254;62;30673;-81
2022/01/13 21:04:35;;;;;;;2.45;2.10;;;17.30;72.90;;;;;;2260340;62;30164;-81
2022/01/13 21:07:01;;;;;;;5.85;2.40;;;17.30;72.80;;;;;;2267991;62;30407;-80
2022/01/13 21:09:27;;;;;;;2.88;2.00;;;17.40;72.90;;;;;;2267668;62;30490;-89
2022/01/13 21:11:53;;;;;;;6.35;2.72;;;17.40;72.90;;;;;;2267756;62;30234;-85
2022/01/13 21:14:19;;;;;;;3.60;2.05;;;17.40;72.90;;;;;;2267630;62;30528;-88
2022/01/13 21:16:47;;;;;;;3.75;2.20;;;17.40;73.00;;;;;;2268262;62;30072;-89
2022/01/13 21:19:13;;;;;;;2.50;1.83;;;17.40;73.00;;;;;;2268605;62;30085;-90
2022/01/13 21:21:39;;;;;;;3.80;1.92;;;17.40;73.00;;;;;;2268522;62;30325;-92
2022/01/13 21:24:06;;;;;;;3.05;2.38;;;17.40;73.00;;;;;;2268428;62;30452;-90
2022/01/13 21:26:32;;;;;;;3.75;2.00;;;17.30;73.00;;;;;;2267449;62;31603;-89
2022/01/13 21:29:00;;;;;;;4.18;2.50;;;17.30;73.30;;;;;;2267610;62;30417;-91
2022/01/13 21:31:26;;;;;;;2.25;1.95;;;17.30;73.40;;;;;;2267126;62;30174;-90
2022/01/13 21:33:56;;;;;;;3.63;1.95;;;17.30;73.40;;;;;;2260740;62;30208;-89
2022/01/13 21:36:23;;;;;;;3.72;2.15;;;17.30;73.30;;;;;;2260714;62;30342;-88
2022/01/13 21:38:50;;;;;;;2.80;2.00;;;17.30;73.30;;;;;;2259716;62;30307;-87
2022/01/13 21:41:16;;;;;;;3.00;2.10;;;17.30;73.40;;;;;;2266041;62;30256;-84
2022/01/13 21:43:42;;;;;;;4.35;2.28;;;17.30;73.40;;;;;;2259330;62;30142;-83
2022/01/13 21:46:11;;;;;;;4.13;2.00;;;17.30;73.30;;;;;;2267492;62;30332;-82
2022/01/13 21:48:38;;;;;;;2.45;1.73;;;17.30;73.30;;;;;;2267410;62;30292;-80
2022/01/13 21:51:04;;;;;;;3.97;1.92;;;17.30;73.30;;;;;;2267516;62;30142;-81
2022/01/13 21:53:30;;;;;;;3.90;1.80;;;17.30;73.30;;;;;;2267384;62;30913;-80
2022/01/13 21:55:56;;;;;;;2.67;2.00;;;17.30;73.30;;;;;;2253661;62;31357;-79
2022/01/13 21:58:22;;;;;;;2.28;1.70;;;17.30;73.30;;;;;;2253441;62;30176;-80
2022/01/13 22:00:48;;;;;;;1.90;1.60;;;17.30;73.30;;;;;;2267481;62;30062;-79
2022/01/13 22:03:17;;;;;;;1.73;1.60;;;17.30;73.30;;;;;;2267504;62;30140;-79
2022/01/13 22:05:43;;;;;;;2.33;2.03;;;17.30;73.20;;;;;;2267444;62;30287;-80
2022/01/13 22:08:27;;;;;;;4.75;2.10;;;17.30;73.30;;;;;;2266971;62;30750;-80
2022/01/13 22:10:55;;;;;;;3.92;1.85;;;17.30;73.30;;;;;;2255423;62;30556;-79
2022/01/13 22:13:21;;;;;;;2.42;1.65;;;17.30;73.30;;;;;;2267589;62;30616;-79
2022/01/13 22:15:47;;;;;;;4.63;1.98;;;17.30;73.30;;;;;;2259595;62;31037;-78
2022/01/13 22:18:13;;;;;;;1.77;1.60;;;17.30;73.30;;;;;;2267569;62;30169;-77
2022/01/13 22:20:38;;;;;;;2.55;1.80;;;17.30;73.20;;;;;;2267175;62;30627;-79
2022/01/13 22:23:10;;;;;;;3.70;1.88;;;17.30;73.20;;;;;;2267437;62;29978;-81
2022/01/13 22:25:41;;;;;;;2.25;1.50;;;17.30;73.20;;;;;;2267532;62;30929;-81
2022/01/13 22:28:08;;;;;;;2.67;2.03;;;17.30;73.20;;;;;;2267182;62;30639;-83
2022/01/13 22:30:33;;;;;;;2.45;1.63;;;17.30;73.20;;;;;;2260077;62;30080;-79
2022/01/13 22:33:00;;;;;;;1.85;1.58;;;17.30;73.20;;;;;;2267501;62;30116;-79
2022/01/13 22:35:37;;;;;;;2.22;1.90;;;17.30;73.10;;;;;;2260504;62;30871;-80
2022/01/13 22:38:03;;;;;;;3.15;2.00;;;17.30;73.10;;;;;;2267101;62;30292;-79
2022/01/13 22:40:40;;;;;;;2.13;1.85;;;17.30;73.10;;;;;;2266849;62;30356;-80
2022/01/13 22:43:14;;;;;;;2.20;1.90;;;17.30;73.00;;;;;;2267116;62;30221;-78
2022/01/13 22:45:40;;;;;;;7.25;4.90;;;17.20;73.10;;;;;;2259695;62;31078;-79
2022/01/13 22:48:07;;;;;;;9.82;5.82;;;17.20;73.20;;;;;;2267246;62;30235;-79
2022/01/13 22:50:33;;;;;;;8.27;4.90;;;17.20;73.20;;;;;;2267188;62;30080;-78
2022/01/13 22:52:59;;;;;;;7.75;4.45;;;17.20;73.20;;;;;;2251888;63;30874;-79
2022/01/13 22:55:25;;;;;;;8.43;4.63;;;17.20;73.20;;;;;;2259041;63;31006;-78
2022/01/13 22:57:51;;;;;;;7.65;3.63;;;17.20;73.20;;;;;;2258810;63;30335;-78
2022/01/13 23:00:20;;;;;;;5.57;3.60;;;17.20;73.20;;;;;;2264625;62;30257;-81
2022/01/13 23:03:06;;;;;;;7.15;3.45;;;17.20;73.20;;;;;;2260299;62;30244;-84
2022/01/13 23:05:32;;;;;;;6.18;3.30;;;17.20;73.10;;;;;;2265810;62;30302;-75
2022/01/13 23:07:58;;;;;;;3.97;2.85;;;17.20;73.00;;;;;;2267099;62;30474;-74
2022/01/13 23:10:25;;;;;;;6.00;2.92;;;17.20;73.00;;;;;;2266136;62;30204;-75
2022/01/13 23:12:51;;;;;;;8.27;3.20;;;17.10;72.90;;;;;;2259683;62;30329;-76
2022/01/13 23:23:12;;;;;;;4.15;2.80;;;16.90;73.00;;;;;;2266955;62;31195;-73
2022/01/13 23:25:41;;;;;;;5.85;3.33;;;16.80;73.10;;;;;;2267129;62;31154;-75
2022/01/13 23:28:07;;;;;;;5.65;3.10;;;16.80;73.20;;;;;;2267140;62;30656;-75
